Flight Track Log - Related Links

Times and Time Zones

All times are in EDT time to prevent confusion due to time zone crossing. See the JIA2328 flight status page for this flight to view local times or setup timezone preferences in your user account.

Time Position Orientation Groundspeed Altitude Reporting Facility
EDT Latitude Longitude Course Direction KTS MPH feet Rate Location/Type
Sat 07:37:11 AM 39.8833 -75.2000 37° Northeast 150 173 1,000  Level Philadelphia TRACON
Sat 07:37:53 AM 39.8833 -75.1500 90° East 209 241 3,000 2,870 Climbing Philadelphia TRACON
Sat 07:39:29 AM 39.8497 -75.0106 107° East 289 333 7,600 2,885 Climbing New York Center
Sat 07:40:00 AM 39.7968 -74.7672 105° East  Level FlightAware Approximate
Sat 07:40:29 AM 39.8322 -74.9175 104° East 289 333 10,500  Level New York Center
Sat 07:41:00 AM 39.8152 -74.6682 37° Northeast  Level FlightAware Approximate
Sat 07:41:29 AM 39.8111 -74.8056 104° East 305 351 13,200  Level New York Center
Sat 07:42:00 AM 39.8893 -74.5941 37° Northeast  Level FlightAware Approximate
Sat 07:42:28 AM 39.8067 -74.6892 93° East 310 357 15,700  Level New York Center
Sat 07:43:28 AM 39.8756 -74.6225 37° Northeast 278 320 17,800 1,934 Climbing New York Center
Sat 07:44:29 AM 39.9633 -74.5544 31° Northeast 289 333 19,600 1,587 Climbing New York Center
Sat 07:45:29 AM 40.0236 -74.4953 37° Northeast 309 356 21,000 1,664 Climbing New York Center
Sat 07:46:28 AM 40.1056 -74.4075 39° Northeast 327 376 22,900 1,513 Climbing New York Center
Sat 07:47:28 AM 40.1850 -74.3300 37° Northeast 347 399 24,000 550 Climbing New York Center
Sat 07:48:28 AM 40.2686 -74.2472 37° Northeast 359 413 24,000  Level New York Center
Sat 07:50:43 AM 40.4753 -74.0769 32° Northeast 372 428 24,000  Level Boston Center
Sat 07:51:43 AM 40.5617 -74.0272 24° Northeast 367 422 24,000  Level Boston Center
Sat 07:52:43 AM 40.6583 -73.9611 27° Northeast 361 415 24,000  Level Boston Center
Sat 07:53:43 AM 40.7467 -73.9003 28° Northeast 361 415 24,000  Level Boston Center
Sat 07:54:43 AM 40.8311 -73.8225 35° Northeast 361 415 24,000 -300 Level Boston Center
Sat 07:55:43 AM 40.9072 -73.7253 44° Northeast 361 415 23,400 -500 Descending Boston Center
Sat 07:56:43 AM 40.9933 -73.6583 30° Northeast 366 421 23,000 -200 Descending Boston Center
Sat 07:57:43 AM 41.0892 -73.6544 North 326 375 23,000 -300 Level Boston Center
Sat 07:58:43 AM 41.1811 -73.6453 North 326 375 22,400 -800 Descending Boston Center
Sat 07:59:43 AM 41.2708 -73.6306 North 331 381 21,400 -1,000 Descending Boston Center
Sat 08:00:43 AM 41.3606 -73.6211 North 331 381 20,400 -1,050 Descending Boston Center
Sat 08:01:43 AM 41.4481 -73.6089 North 320 368 19,300 -1,050 Descending Boston Center
Sat 08:02:43 AM 41.5211 -73.5989 North 304 350 18,300 -850 Descending Boston Center
Sat 08:03:43 AM 41.6006 -73.5894 North 304 350 17,600 -1,000 Descending Boston Center
Sat 08:04:43 AM 41.6944 -73.5772 North 310 357 16,300 -1,300 Descending Boston Center
Sat 08:05:43 AM 41.7861 -73.5678 North 305 351 15,000 -1,190 Descending Boston Center
Sat 08:06:39 AM 41.8656 -73.5578 North 301 346 14,000 -1,054 Descending Boston Center
Sat 08:06:57 AM 41.8906 -73.5556 North 298 343 13,700 -1,031 Descending Boston Center
Sat 08:07:43 AM 41.9489 -73.5456 North 290 334 12,900 -984 Descending Boston Center
Sat 08:07:58 AM 41.9697 -73.5458 359° North 288 331 12,700 -900 Descending Boston Center
Sat 08:08:43 AM 42.0200 -73.5356 North 285 328 12,000 -984 Descending Boston Center
Sat 08:08:59 AM 42.0492 -73.5333 North 283 326 11,700 -711 Descending Boston Center
Sat 08:09:59 AM 42.1242 -73.5375 358° North 278 320 11,100 -298 Descending Boston Center
Sat 08:11:00 AM 42.1967 -73.5750 339° North 276 318 11,100 -246 Level Boston Center
Sat 08:12:01 AM 42.2672 -73.6072 341° North 277 319 10,600 -1,043 Descending Boston Center
Sat 08:12:55 AM 42.3192 -73.6361 338° Northwest 269 310 9,100 -1,895 Descending Boston Center
Sat 08:13:55 AM 42.4000 -73.6714 342° North 258 297 7,000 -1,900 Descending Boston Center
Sat 08:14:55 AM 42.4664 -73.7039 340° North 264 304 5,300 -1,700 Descending Boston Center
Sat 08:15:55 AM 42.5389 -73.7419 339° North 264 304 3,600 -1,700 Descending Boston Center

Login

Don't have an account? Register now (free) for customized features, flight alerts, and more!